Time;durP1;ratioP1;P1;durP2;ratioP2;P2;SDS_P1;SDS_P2;PMS_P1;PMS_P2;Temp;Humidity;BMP_temperature;BMP_pressure;BME280_temperature;BME280_humidity;BME280_pressure;Samples;Min_cycle;Max_cycle;Signal;HPM_P1;HPM_P2
2021/12/01 00:01:16;;;;;;;0.25;0.25;;;5.50;99.90;;;;;;5093293;28;20205;-83
2021/12/01 00:03:45;;;;;;;0.40;0.30;;;5.50;99.90;;;;;;5092796;28;20196;-83
2021/12/01 00:06:13;;;;;;;0.40;0.40;;;5.50;99.90;;;;;;5093554;28;20230;-84
2021/12/01 00:08:41;;;;;;;0.10;0.10;;;5.50;99.90;;;;;;5092722;28;20274;-84
2021/12/01 00:11:10;;;;;;;0.20;0.20;;;5.50;99.90;;;;;;5091845;28;20292;-84
2021/12/01 00:13:38;;;;;;;0.63;0.50;;;5.60;99.90;;;;;;5073077;28;20216;-83
2021/12/01 00:16:08;;;;;;;0.50;0.50;;;5.60;99.90;;;;;;5072939;28;20231;-82
2021/12/01 00:18:38;;;;;;;0.22;0.22;;;5.70;99.90;;;;;;5093112;28;20232;-83
2021/12/01 00:21:06;;;;;;;0.20;0.20;;;5.70;99.90;;;;;;5091714;28;20284;-83
2021/12/01 00:23:35;;;;;;;0.20;0.20;;;5.60;99.90;;;;;;5072709;28;20225;-83
2021/12/01 00:26:04;;;;;;;0.50;0.50;;;5.60;99.90;;;;;;5072233;28;20264;-83
2021/12/01 00:28:33;;;;;;;0.20;0.20;;;5.70;99.90;;;;;;5072771;28;20299;-84
2021/12/01 00:31:01;;;;;;;0.30;0.30;;;5.60;99.90;;;;;;5083582;28;20279;-83
2021/12/01 00:33:30;;;;;;;0.22;0.22;;;5.70;99.90;;;;;;5093148;28;20279;-84
2021/12/01 00:36:00;;;;;;;0.57;0.57;;;5.70;99.90;;;;;;5092732;28;20208;-84
2021/12/01 00:38:29;;;;;;;0.20;0.20;;;5.70;99.90;;;;;;5092809;28;20221;-84
2021/12/01 00:41:02;;;;;;;0.17;0.17;;;5.80;99.90;;;;;;5082656;28;20197;-83
2021/12/01 00:43:31;;;;;;;0.28;0.28;;;5.80;99.90;;;;;;5072962;28;20201;-83
2021/12/01 00:46:09;;;;;;;0.43;0.43;;;5.90;99.90;;;;;;5072610;28;20280;-84
2021/12/01 00:48:38;;;;;;;0.30;0.30;;;6.00;99.90;;;;;;5072442;28;20221;-83
2021/12/01 00:51:08;;;;;;;0.20;0.20;;;6.00;99.90;;;;;;5072861;28;20392;-83
2021/12/01 00:53:37;;;;;;;0.40;0.28;;;6.00;99.90;;;;;;5072603;28;20262;-83
2021/12/01 00:56:06;;;;;;;0.25;0.25;;;6.00;99.90;;;;;;5073595;28;20288;-83
2021/12/01 00:58:34;;;;;;;0.30;0.30;;;6.00;99.90;;;;;;5076044;28;20232;-83
2021/12/01 01:01:03;;;;;;;0.35;0.20;;;6.00;99.90;;;;;;5084554;28;20224;-83
2021/12/01 01:03:32;;;;;;;0.30;0.30;;;6.00;99.90;;;;;;5096461;28;20200;-84
2021/12/01 01:06:01;;;;;;;0.13;0.13;;;6.00;99.90;;;;;;5096424;28;20238;-84
2021/12/01 01:08:31;;;;;;;0.10;0.10;;;6.10;99.90;;;;;;5095702;28;20242;-83
2021/12/01 01:16:22;;;;;;;0.13;0.13;;;6.20;99.90;;;;;;5096294;28;20242;-83
2021/12/01 01:16:49;;;;;;;0.43;0.38;;;6.20;99.90;;;;;;5095839;28;20262;-83
2021/12/01 01:19:20;;;;;;;0.20;0.20;;;6.30;99.90;;;;;;5094942;28;20254;-83
2021/12/01 01:21:51;;;;;;;0.15;0.15;;;6.20;99.90;;;;;;5096296;28;20288;-83
2021/12/01 01:24:22;;;;;;;0.10;0.10;;;6.30;99.90;;;;;;5096671;28;20196;-83
2021/12/01 01:26:51;;;;;;;0.30;0.30;;;6.30;99.90;;;;;;5096115;28;20228;-84
2021/12/01 01:29:22;;;;;;;0.20;0.20;;;6.30;99.90;;;;;;5095283;28;20219;-83
2021/12/01 01:31:52;;;;;;;0.30;0.30;;;6.30;99.90;;;;;;5096268;28;20289;-84
2021/12/01 01:34:20;;;;;;;0.30;0.30;;;6.30;99.90;;;;;;5096190;28;20295;-83
2021/12/01 01:36:49;;;;;;;0.10;0.10;;;6.30;99.90;;;;;;5096090;28;20230;-84
2021/12/01 01:39:18;;;;;;;0.10;0.10;;;6.30;99.90;;;;;;5085825;28;20205;-83
2021/12/01 01:41:48;;;;;;;0.20;0.20;;;6.30;99.90;;;;;;5075385;28;20211;-83
2021/12/01 01:44:16;;;;;;;0.32;0.10;;;6.30;99.90;;;;;;5075928;28;20248;-83
2021/12/01 01:46:44;;;;;;;0.20;0.20;;;6.40;99.90;;;;;;5075071;28;20311;-83
2021/12/01 01:49:17;;;;;;;0.03;0.03;;;6.30;99.90;;;;;;5084518;28;20363;-84
2021/12/01 01:51:46;;;;;;;0.30;0.30;;;6.40;99.90;;;;;;5095747;28;20224;-83
2021/12/01 01:54:17;;;;;;;0.10;0.10;;;6.40;99.90;;;;;;5095690;28;20264;-83
2021/12/01 01:56:47;;;;;;;0.10;0.10;;;6.40;99.90;;;;;;5095303;28;20259;-84
2021/12/01 01:59:16;;;;;;;0.20;0.20;;;6.40;99.90;;;;;;5095451;28;20312;-84
2021/12/01 02:01:53;;;;;;;0.15;0.15;;;6.50;99.90;;;;;;5095357;28;20246;-84
2021/12/01 02:04:23;;;;;;;0.20;0.20;;;6.50;99.90;;;;;;5095037;28;20294;-84
2021/12/01 02:06:51;;;;;;;0.20;0.20;;;6.50;99.90;;;;;;5095200;28;20311;-83
2021/12/01 02:09:22;;;;;;;0.08;0.08;;;6.50;99.90;;;;;;5081577;28;20263;-84
2021/12/01 02:11:54;;;;;;;0.20;0.20;;;6.50;99.90;;;;;;5075166;28;20292;-83
2021/12/01 02:14:23;;;;;;;0.00;0.00;;;6.50;99.90;;;;;;5075548;28;20229;-84
2021/12/01 02:16:52;;;;;;;0.20;0.20;;;6.40;99.90;;;;;;5074751;28;20241;-84
2021/12/01 02:19:20;;;;;;;1.05;0.63;;;6.50;99.90;;;;;;5074702;28;20213;-84
2021/12/01 02:21:50;;;;;;;0.10;0.10;;;6.50;99.90;;;;;;5074821;28;20237;-84
2021/12/01 02:24:24;;;;;;;1.77;0.38;;;6.50;99.90;;;;;;5085693;28;20197;-84
2021/12/01 02:26:53;;;;;;;0.20;0.20;;;6.40;99.90;;;;;;5095268;28;20232;-84
2021/12/01 02:29:23;;;;;;;0.10;0.10;;;6.40;99.90;;;;;;5079892;28;20252;-84
2021/12/01 02:31:53;;;;;;;1.35;0.32;;;6.40;99.90;;;;;;5074784;28;20208;-84
2021/12/01 02:34:23;;;;;;;0.20;0.20;;;6.30;99.90;;;;;;5089043;28;20216;-84
2021/12/01 02:36:55;;;;;;;0.22;0.22;;;6.40;99.90;;;;;;5094790;28;20252;-84
2021/12/01 02:39:23;;;;;;;0.20;0.20;;;6.30;99.90;;;;;;5076883;28;20240;-84
2021/12/01 02:41:53;;;;;;;0.47;0.30;;;6.30;99.90;;;;;;5074116;28;20258;-83
2021/12/01 02:44:23;;;;;;;0.17;0.17;;;6.40;99.90;;;;;;5074667;28;20276;-84
2021/12/01 02:46:52;;;;;;;0.30;0.30;;;6.40;99.90;;;;;;5074684;28;20241;-84
2021/12/01 02:49:21;;;;;;;0.10;0.10;;;6.50;99.90;;;;;;5093974;28;20264;-84
2021/12/01 02:51:53;;;;;;;0.22;0.22;;;6.40;99.90;;;;;;5093932;28;20215;-84
2021/12/01 02:54:23;;;;;;;0.50;0.50;;;6.40;99.90;;;;;;5094074;28;20220;-83
2021/12/01 02:56:53;;;;;;;0.20;0.20;;;6.40;99.90;;;;;;5094308;28;20225;-83
2021/12/01 02:59:23;;;;;;;0.13;0.13;;;6.40;99.90;;;;;;5094174;28;20231;-84
2021/12/01 03:01:52;;;;;;;0.17;0.17;;;6.40;99.90;;;;;;5094221;28;20235;-83
2021/12/01 03:04:22;;;;;;;0.45;0.45;;;6.40;99.90;;;;;;5090790;28;20196;-83
2021/12/01 03:06:51;;;;;;;0.17;0.17;;;6.40;99.90;;;;;;5074520;28;20224;-83
2021/12/01 03:09:20;;;;;;;0.45;0.45;;;6.40;99.90;;;;;;5073411;28;20287;-83
2021/12/01 03:11:50;;;;;;;0.30;0.30;;;6.40;99.90;;;;;;5088851;28;20205;-83
2021/12/01 03:14:20;;;;;;;0.22;0.22;;;6.30;99.90;;;;;;5094135;28;20244;-83
2021/12/01 03:16:51;;;;;;;0.10;0.10;;;6.40;99.90;;;;;;5093688;28;20307;-82
2021/12/01 03:19:19;;;;;;;0.40;0.40;;;6.30;99.90;;;;;;5093108;28;20249;-86
2021/12/01 03:21:48;;;;;;;0.20;0.20;;;6.30;99.90;;;;;;5079946;28;20268;-86
2021/12/01 03:24:16;;;;;;;0.40;0.40;;;6.30;99.90;;;;;;5073571;28;20205;-86
2021/12/01 03:26:45;;;;;;;0.20;0.20;;;6.30;99.90;;;;;;5086247;28;20263;-86
2021/12/01 03:29:16;;;;;;;0.40;0.40;;;6.20;99.90;;;;;;5093509;28;20239;-86
2021/12/01 03:31:44;;;;;;;0.17;0.17;;;6.20;99.90;;;;;;5076404;28;20211;-86
2021/12/01 03:34:13;;;;;;;0.38;0.22;;;6.20;99.90;;;;;;5073190;28;20217;-86
2021/12/01 03:36:41;;;;;;;0.30;0.30;;;6.20;99.90;;;;;;5088939;28;20193;-86
2021/12/01 03:39:10;;;;;;;0.30;0.30;;;6.20;99.90;;;;;;5093516;28;20200;-86
2021/12/01 03:41:38;;;;;;;0.40;0.40;;;6.20;99.90;;;;;;5084090;28;20200;-86
2021/12/01 03:44:07;;;;;;;0.25;0.25;;;6.20;99.90;;;;;;5093741;28;20223;-86
2021/12/01 03:46:37;;;;;;;0.28;0.28;;;6.20;99.90;;;;;;5092843;28;20239;-86
2021/12/01 03:49:05;;;;;;;0.30;0.30;;;6.20;99.90;;;;;;5092991;28;20295;-85
2021/12/01 03:51:34;;;;;;;0.40;0.40;;;6.20;99.90;;;;;;5077625;28;20288;-85
2021/12/01 03:54:02;;;;;;;0.63;0.63;;;6.20;99.90;;;;;;5073409;28;20252;-85
2021/12/01 03:56:33;;;;;;;0.32;0.32;;;6.20;99.90;;;;;;5091848;28;20291;-85
2021/12/01 03:59:02;;;;;;;0.50;0.50;;;6.20;99.90;;;;;;5093263;28;20220;-85
2021/12/01 04:01:30;;;;;;;0.57;0.57;;;6.20;99.90;;;;;;5093500;28;20200;-85
2021/12/01 04:04:00;;;;;;;0.55;0.35;;;6.20;99.90;;;;;;5093647;28;20204;-85
2021/12/01 04:06:29;;;;;;;0.35;0.35;;;6.20;99.90;;;;;;5093113;28;20220;-85
2021/12/01 04:08:58;;;;;;;0.68;0.68;;;6.20;99.90;;;;;;5092996;28;20291;-85
2021/12/01 04:11:27;;;;;;;0.30;0.30;;;6.20;99.90;;;;;;5072940;28;20280;-85
2021/12/01 04:13:56;;;;;;;0.38;0.38;;;6.20;99.90;;;;;;5072945;28;20312;-85
2021/12/01 04:16:24;;;;;;;0.43;0.43;;;6.20;99.90;;;;;;5092260;28;20208;-85
2021/12/01 04:18:53;;;;;;;0.25;0.25;;;6.20;99.90;;;;;;5093088;28;20201;-85
2021/12/01 04:21:25;;;;;;;0.50;0.50;;;6.30;99.90;;;;;;5079036;28;20200;-85
2021/12/01 04:23:54;;;;;;;1.30;0.65;;;6.30;99.90;;;;;;5072965;28;20193;-85
2021/12/01 04:26:26;;;;;;;0.70;0.70;;;6.30;99.90;;;;;;5073147;28;20219;-85
2021/12/01 04:28:56;;;;;;;0.70;0.70;;;6.30;99.90;;;;;;5072341;28;20296;-86
2021/12/01 04:31:25;;;;;;;0.30;0.30;;;6.30;99.90;;;;;;5074433;28;20291;-85
2021/12/01 04:33:54;;;;;;;0.40;0.40;;;6.30;99.90;;;;;;5076835;28;20251;-85
2021/12/01 04:36:27;;;;;;;0.57;0.57;;;6.30;99.90;;;;;;5085224;28;20211;-86
2021/12/01 04:38:56;;;;;;;0.45;0.45;;;6.40;99.90;;;;;;5076288;28;20293;-86
2021/12/01 04:41:25;;;;;;;0.52;0.52;;;6.40;99.90;;;;;;5076581;28;20269;-86
2021/12/01 04:43:53;;;;;;;0.65;0.65;;;6.40;99.90;;;;;;5078955;28;20233;-85
2021/12/01 04:46:22;;;;;;;0.77;0.77;;;6.40;99.90;;;;;;5097065;28;20226;-85
2021/12/01 04:48:51;;;;;;;0.55;0.55;;;6.40;99.90;;;;;;5095677;28;20215;-85
2021/12/01 04:51:19;;;;;;;0.35;0.35;;;6.40;99.90;;;;;;5097160;28;20257;-85
2021/12/01 04:53:49;;;;;;;0.70;0.70;;;6.50;99.90;;;;;;5096544;28;20216;-85
2021/12/01 04:56:18;;;;;;;0.40;0.40;;;6.50;99.90;;;;;;5096740;28;20204;-85
2021/12/01 04:58:48;;;;;;;0.50;0.50;;;6.50;99.90;;;;;;5093105;28;20280;-85
2021/12/01 05:01:17;;;;;;;0.32;0.32;;;6.50;99.90;;;;;;5076885;28;20201;-85
2021/12/01 05:03:45;;;;;;;0.45;0.45;;;6.50;99.90;;;;;;5076456;28;20197;-85
2021/12/01 05:06:16;;;;;;;2.35;0.82;;;6.50;99.90;;;;;;5094298;28;20208;-84
2021/12/01 05:08:44;;;;;;;0.85;0.80;;;6.50;99.90;;;;;;5096197;28;20251;-84
2021/12/01 05:11:15;;;;;;;0.60;0.60;;;6.50;99.90;;;;;;5096069;28;20279;-85
2021/12/01 05:13:53;;;;;;;0.82;0.75;;;6.50;99.90;;;;;;5089838;28;20225;-85
2021/12/01 05:16:22;;;;;;;0.60;0.60;;;6.50;99.90;;;;;;5076057;28;20204;-84
2021/12/01 05:18:50;;;;;;;0.45;0.45;;;6.50;99.90;;;;;;5080633;28;20326;-85
2021/12/01 05:21:19;;;;;;;0.60;0.60;;;6.40;99.90;;;;;;5096324;28;20239;-85
2021/12/01 05:23:48;;;;;;;1.13;0.95;;;6.30;99.90;;;;;;5096190;28;20208;-84
2021/12/01 05:26:18;;;;;;;0.50;0.50;;;6.30;99.90;;;;;;5096024;28;20204;-84
2021/12/01 05:28:46;;;;;;;0.95;0.95;;;6.30;99.90;;;;;;5088073;28;20241;-85
2021/12/01 05:31:14;;;;;;;0.52;0.52;;;6.30;99.90;;;;;;5075743;28;20304;-84
2021/12/01 05:33:43;;;;;;;0.70;0.70;;;6.30;99.90;;;;;;5075749;28;20204;-85
2021/12/01 05:36:11;;;;;;;0.70;0.70;;;6.40;99.90;;;;;;5075478;28;20296;-84
2021/12/01 05:38:40;;;;;;;0.65;0.65;;;6.30;99.90;;;;;;5080690;28;20299;-84
2021/12/01 05:41:09;;;;;;;0.70;0.70;;;6.30;99.90;;;;;;5095870;28;20267;-84
2021/12/01 05:43:39;;;;;;;0.63;0.63;;;6.30;99.90;;;;;;5090648;28;20197;-84
2021/12/01 05:46:07;;;;;;;0.90;0.90;;;6.30;99.90;;;;;;5074713;28;20256;-85
2021/12/01 05:48:36;;;;;;;0.63;0.63;;;6.30;99.90;;;;;;5074816;28;20267;-84
2021/12/01 05:51:05;;;;;;;0.55;0.55;;;6.40;99.90;;;;;;5075793;28;20278;-85
2021/12/01 05:53:33;;;;;;;0.77;0.77;;;6.40;99.90;;;;;;5079123;28;20197;-84
2021/12/01 05:56:02;;;;;;;0.80;0.80;;;6.40;99.90;;;;;;5075906;28;20244;-85
2021/12/01 05:58:30;;;;;;;0.40;0.40;;;6.40;99.90;;;;;;5085579;28;20216;-85
2021/12/01 06:01:00;;;;;;;0.50;0.50;;;6.50;99.90;;;;;;5094642;28;20249;-85
2021/12/01 06:03:28;;;;;;;0.57;0.57;;;6.50;99.90;;;;;;5090357;28;20196;-85
2021/12/01 06:05:57;;;;;;;0.65;0.65;;;6.60;99.90;;;;;;5095570;28;20200;-85
2021/12/01 06:08:25;;;;;;;0.30;0.30;;;6.60;99.90;;;;;;5095517;28;20255;-87
2021/12/01 06:10:55;;;;;;;1.80;0.40;;;6.60;99.90;;;;;;5088077;28;20246;-86
2021/12/01 06:13:36;;;;;;;0.68;0.68;;;6.60;99.90;;;;;;5094326;28;20223;-86
2021/12/01 06:16:16;;;;;;;0.63;0.60;;;6.70;99.90;;;;;;5092197;28;20315;-86
2021/12/01 06:18:46;;;;;;;0.40;0.40;;;6.70;99.90;;;;;;5076461;28;20224;-88
2021/12/01 06:21:14;;;;;;;0.45;0.20;;;6.70;99.90;;;;;;5074612;28;20211;-84
2021/12/01 06:23:45;;;;;;;0.45;0.45;;;6.70;99.90;;;;;;5075177;28;20227;-87
2021/12/01 06:26:13;;;;;;;0.70;0.70;;;6.80;99.90;;;;;;5091102;28;20204;-85
2021/12/01 06:28:42;;;;;;;0.47;0.47;;;6.70;99.90;;;;;;5094726;28;20248;-84
2021/12/01 06:31:10;;;;;;;15.23;1.02;;;6.80;99.90;;;;;;5079282;28;20209;-86
2021/12/01 06:33:58;;;;;;;0.70;0.70;;;6.80;99.90;;;;;;5074708;28;20212;-87
2021/12/01 06:36:27;;;;;;;3.13;0.73;;;6.80;99.90;;;;;;5074481;28;20312;-84
2021/12/01 06:38:55;;;;;;;0.45;0.45;;;6.90;99.90;;;;;;5073927;28;20239;-79
2021/12/01 06:41:24;;;;;;;0.65;0.65;;;6.90;99.90;;;;;;5073124;28;20300;-82
2021/12/01 06:43:52;;;;;;;0.90;0.90;;;6.90;99.90;;;;;;5071880;28;20201;-82
2021/12/01 06:46:21;;;;;;;0.80;0.73;;;6.90;99.90;;;;;;5071937;28;20236;-82
2021/12/01 06:48:58;;;;;;;1.02;1.00;;;7.00;99.90;;;;;;5070498;28;20219;-82
2021/12/01 06:51:30;;;;;;;0.70;0.70;;;7.00;99.90;;;;;;5071467;28;20212;-82
2021/12/01 06:54:00;;;;;;;0.75;0.60;;;7.00;99.90;;;;;;5071213;28;20205;-82
2021/12/01 06:56:31;;;;;;;0.70;0.70;;;7.00;99.90;;;;;;5070851;28;20240;-82
2021/12/01 06:59:04;;;;;;;0.50;0.50;;;7.10;99.90;;;;;;5073120;28;20292;-82
2021/12/01 07:04:22;;;;;;;0.47;0.47;;;7.10;99.90;;;;;;5073076;28;20209;-82
2021/12/01 07:06:52;;;;;;;0.70;0.70;;;7.20;99.90;;;;;;5080317;28;20240;-83
2021/12/01 07:09:23;;;;;;;1.27;0.80;;;7.20;99.90;;;;;;5076484;28;20201;-84
2021/12/01 07:11:52;;;;;;;2.00;0.93;;;7.20;99.90;;;;;;5076041;28;20215;-83
2021/12/01 07:14:20;;;;;;;0.73;0.73;;;7.20;99.90;;;;;;5093247;28;20300;-84
2021/12/01 07:16:49;;;;;;;0.40;0.40;;;7.20;99.90;;;;;;5093067;28;20315;-88
2021/12/01 07:19:17;;;;;;;0.50;0.50;;;7.30;99.90;;;;;;5094679;28;20205;-90
2021/12/01 07:21:46;;;;;;;0.65;0.57;;;7.30;99.90;;;;;;5103458;28;20220;-91
2021/12/01 07:24:16;;;;;;;0.70;0.70;;;7.30;99.90;;;;;;5092338;28;20339;-89
2021/12/01 07:26:44;;;;;;;0.68;0.65;;;7.40;99.90;;;;;;5081711;28;20216;-89
2021/12/01 07:32:19;;;;;;;0.40;0.40;;;7.40;99.90;;;;;;5091968;28;20291;-89
2021/12/01 07:34:47;;;;;;;0.90;0.90;;;7.30;99.90;;;;;;5093031;28;20273;-89
2021/12/01 07:37:50;;;;;;;1.65;0.70;;;7.20;99.90;;;;;;5092828;28;20277;-92
2021/12/01 07:40:30;;;;;;;0.70;0.70;;;7.10;99.90;;;;;;5092299;28;20208;-87
2021/12/01 07:43:16;;;;;;;0.90;0.90;;;7.00;99.90;;;;;;5092968;28;20200;-89
2021/12/01 07:45:46;;;;;;;2.80;0.88;;;7.00;99.90;;;;;;5092837;28;20246;-84
2021/12/01 07:48:15;;;;;;;0.80;0.80;;;7.00;99.90;;;;;;5092223;28;20311;-84
2021/12/01 07:50:44;;;;;;;0.32;0.32;;;7.00;99.90;;;;;;5091601;28;20283;-84
2021/12/01 07:53:13;;;;;;;0.47;0.47;;;7.00;99.90;;;;;;5091762;28;20286;-83
2021/12/01 07:55:43;;;;;;;0.80;0.80;;;7.10;99.90;;;;;;5092061;28;20308;-84
2021/12/01 07:58:12;;;;;;;0.85;0.85;;;7.10;99.90;;;;;;5089126;28;20307;-84
2021/12/01 08:00:40;;;;;;;0.73;0.73;;;7.10;99.90;;;;;;5081652;28;20296;-85
2021/12/01 08:03:09;;;;;;;1.98;1.10;;;7.10;99.90;;;;;;5073652;28;20201;-87
2021/12/01 08:05:38;;;;;;;0.73;0.73;;;7.10;99.90;;;;;;5072104;28;20283;-87
2021/12/01 08:08:07;;;;;;;0.70;0.70;;;7.20;99.90;;;;;;5085604;28;20304;-87
2021/12/01 08:10:36;;;;;;;0.70;0.70;;;7.20;99.90;;;;;;5071767;28;20240;-87
2021/12/01 08:13:06;;;;;;;0.82;0.82;;;7.30;99.90;;;;;;5091239;28;20205;-87
2021/12/01 08:15:48;;;;;;;0.60;0.60;;;7.30;99.90;;;;;;5091725;28;20216;-87
2021/12/01 08:18:18;;;;;;;0.70;0.70;;;7.40;99.90;;;;;;5071698;28;20217;-86
2021/12/01 08:20:46;;;;;;;1.17;0.63;;;7.50;99.90;;;;;;5075386;28;20247;-85
2021/12/01 08:23:15;;;;;;;0.60;0.60;;;7.50;99.90;;;;;;5071842;28;20229;-85
2021/12/01 08:25:44;;;;;;;0.50;0.50;;;7.50;99.90;;;;;;5081394;28;20249;-85
2021/12/01 08:28:14;;;;;;;0.63;0.63;;;7.40;99.90;;;;;;5076922;28;20350;-86
2021/12/01 08:30:43;;;;;;;0.47;0.47;;;7.40;99.90;;;;;;5072093;28;20205;-85
2021/12/01 08:33:11;;;;;;;0.70;0.70;;;7.40;99.90;;;;;;5081186;28;20239;-84
2021/12/01 08:35:41;;;;;;;0.80;0.80;;;7.40;99.90;;;;;;5092046;28;20243;-88
2021/12/01 08:38:13;;;;;;;0.60;0.60;;;7.40;99.90;;;;;;5092036;28;20285;-84
2021/12/01 08:40:41;;;;;;;0.80;0.80;;;7.40;99.90;;;;;;5081543;28;20283;-84
2021/12/01 08:43:10;;;;;;;3.83;0.68;;;7.40;99.90;;;;;;5071707;28;20228;-84
2021/12/01 08:45:40;;;;;;;1.30;1.05;;;7.50;99.90;;;;;;5082884;28;20231;-84
2021/12/01 08:48:08;;;;;;;0.60;0.60;;;7.50;99.90;;;;;;5076152;28;20241;-84
2021/12/01 08:50:37;;;;;;;0.50;0.50;;;7.50;99.90;;;;;;5091286;28;20246;-84
2021/12/01 08:53:06;;;;;;;2.83;0.95;;;7.50;99.90;;;;;;5079820;28;20213;-84
2021/12/01 08:55:34;;;;;;;1.73;1.63;;;7.50;99.90;;;;;;5073842;28;20234;-84
2021/12/01 08:58:08;;;;;;;0.90;0.90;;;7.40;99.90;;;;;;5070904;28;20217;-83
2021/12/01 09:00:43;;;;;;;1.17;0.75;;;7.40;99.90;;;;;;5071180;28;20189;-83
2021/12/01 09:03:13;;;;;;;0.68;0.68;;;7.40;99.90;;;;;;5071108;28;20225;-85
2021/12/01 09:05:44;;;;;;;1.05;0.93;;;7.40;99.90;;;;;;5078662;28;20215;-85
2021/12/01 09:08:13;;;;;;;0.95;0.80;;;7.50;99.90;;;;;;5077252;28;20221;-86
2021/12/01 09:10:42;;;;;;;0.60;0.60;;;7.50;99.90;;;;;;5083885;28;20225;-85
2021/12/01 09:13:10;;;;;;;1.00;1.00;;;7.50;99.90;;;;;;5071818;28;20232;-86
2021/12/01 09:15:42;;;;;;;0.70;0.70;;;7.50;99.90;;;;;;5082128;28;20189;-85
2021/12/01 09:18:11;;;;;;;0.90;0.90;;;7.40;99.90;;;;;;5084545;28;20213;-85
2021/12/01 09:20:39;;;;;;;0.60;0.60;;;7.40;99.90;;;;;;5074041;28;20205;-85
2021/12/01 09:23:07;;;;;;;0.63;0.63;;;7.40;99.90;;;;;;5075546;28;20201;-83
2021/12/01 09:25:36;;;;;;;0.52;0.52;;;7.40;99.90;;;;;;5075129;28;20212;-84
2021/12/01 09:28:15;;;;;;;0.88;0.60;;;7.40;99.90;;;;;;5077587;28;20229;-84
2021/12/01 09:30:45;;;;;;;0.85;0.85;;;7.40;99.90;;;;;;5087440;28;20224;-84
2021/12/01 09:33:16;;;;;;;0.65;0.63;;;7.40;99.90;;;;;;5095136;28;20245;-86
2021/12/01 09:35:45;;;;;;;2.20;1.02;;;7.40;99.90;;;;;;5094316;28;20228;-83
2021/12/01 09:38:15;;;;;;;2.05;1.13;;;7.30;99.90;;;;;;5094885;28;20239;-85
2021/12/01 09:40:47;;;;;;;1.35;1.20;;;7.30;99.90;;;;;;5093392;28;20200;-85
2021/12/01 09:43:17;;;;;;;0.88;0.88;;;7.30;99.90;;;;;;5094453;28;20295;-86
2021/12/01 09:45:48;;;;;;;0.88;0.88;;;7.20;99.90;;;;;;5094835;28;20212;-86
2021/12/01 09:48:17;;;;;;;0.95;0.95;;;7.30;99.90;;;;;;5094303;28;20223;-86
2021/12/01 09:51:05;;;;;;;1.08;0.73;;;7.30;99.90;;;;;;5094395;28;20287;-86
2021/12/01 09:53:33;;;;;;;0.70;0.70;;;7.30;99.90;;;;;;5094243;28;20251;-85
2021/12/01 09:56:02;;;;;;;0.43;0.43;;;7.30;99.90;;;;;;5094460;28;20207;-85
2021/12/01 09:58:35;;;;;;;0.38;0.38;;;7.30;99.90;;;;;;5094201;28;20216;-86
2021/12/01 10:01:07;;;;;;;0.22;0.22;;;7.30;99.90;;;;;;5082148;28;20209;-86
2021/12/01 10:03:36;;;;;;;0.52;0.52;;;7.30;99.90;;;;;;5082618;28;20196;-85
2021/12/01 10:06:10;;;;;;;0.60;0.60;;;7.20;99.90;;;;;;5092949;28;20231;-85
2021/12/01 10:08:40;;;;;;;0.55;0.55;;;7.30;99.90;;;;;;5094395;28;20324;-85
2021/12/01 10:11:10;;;;;;;0.73;0.73;;;7.30;99.90;;;;;;5093634;28;20308;-85
2021/12/01 10:13:40;;;;;;;0.75;0.75;;;7.30;99.90;;;;;;5094049;28;20210;-85
2021/12/01 10:16:14;;;;;;;1.70;1.23;;;7.30;99.90;;;;;;5094296;28;20209;-85
2021/12/01 10:18:44;;;;;;;1.40;1.30;;;7.30;99.90;;;;;;5092592;28;20207;-84
2021/12/01 10:21:15;;;;;;;1.15;1.08;;;7.30;99.90;;;;;;5076009;28;20224;-84
2021/12/01 10:23:47;;;;;;;1.20;1.08;;;7.30;99.90;;;;;;5086065;28;20196;-84
2021/12/01 10:26:23;;;;;;;0.82;0.77;;;7.40;99.90;;;;;;5092030;28;20200;-84
2021/12/01 10:28:54;;;;;;;0.70;0.70;;;7.40;99.90;;;;;;5091053;28;20395;-84
2021/12/01 10:31:40;;;;;;;2.25;1.45;;;7.40;99.90;;;;;;5092762;28;20196;-85
2021/12/01 10:34:27;;;;;;;1.00;1.00;;;7.40;99.90;;;;;;5094242;28;20287;-85
2021/12/01 10:37:13;;;;;;;0.70;0.70;;;7.40;99.90;;;;;;5073821;28;20228;-85
2021/12/01 10:39:43;;;;;;;3.05;1.52;;;7.50;99.90;;;;;;5072710;28;20297;-85
2021/12/01 10:42:15;;;;;;;1.80;1.70;;;7.50;99.90;;;;;;5073091;28;20201;-84
2021/12/01 10:45:08;;;;;;;1.70;1.60;;;7.60;99.90;;;;;;5082009;28;20205;-84
2021/12/01 10:47:42;;;;;;;0.60;0.60;;;7.60;99.90;;;;;;5063659;28;20216;-84
2021/12/01 10:50:12;;;;;;;1.77;1.35;;;7.60;99.90;;;;;;5072591;28;20324;-85
2021/12/01 10:52:43;;;;;;;2.38;1.65;;;7.70;99.90;;;;;;5088565;28;20239;-84
2021/12/01 10:55:14;;;;;;;1.52;1.40;;;7.80;99.90;;;;;;5083200;28;20197;-84
2021/12/01 10:57:44;;;;;;;2.22;1.30;;;7.80;99.90;;;;;;5088908;28;20238;-84
2021/12/01 11:00:19;;;;;;;1.08;0.95;;;7.80;99.90;;;;;;5091909;28;20201;-84
2021/12/01 11:02:49;;;;;;;1.20;1.02;;;7.80;99.90;;;;;;5081209;28;20276;-83
2021/12/01 11:05:36;;;;;;;1.98;1.20;;;7.80;99.90;;;;;;5073103;28;20201;-84
2021/12/01 11:08:17;;;;;;;1.48;1.38;;;7.80;99.90;;;;;;5089128;28;20240;-87
2021/12/01 11:10:47;;;;;;;2.22;2.03;;;7.80;99.90;;;;;;5073064;28;20223;-86
2021/12/01 11:13:16;;;;;;;2.15;1.40;;;7.90;99.90;;;;;;5092755;28;20273;-85
2021/12/01 11:15:51;;;;;;;1.77;1.23;;;7.90;99.90;;;;;;5093026;28;20205;-84
2021/12/01 11:18:43;;;;;;;1.58;1.48;;;7.90;99.90;;;;;;5092071;28;20239;-85
2021/12/01 11:21:15;;;;;;;1.83;1.73;;;7.90;99.90;;;;;;5092029;28;20212;-86
2021/12/01 11:23:45;;;;;;;2.00;1.90;;;7.90;99.90;;;;;;5093077;28;20210;-85
2021/12/01 11:26:18;;;;;;;2.03;1.70;;;8.00;99.90;;;;;;5092782;28;20238;-86
2021/12/01 11:28:50;;;;;;;2.20;2.03;;;8.00;99.90;;;;;;5082458;28;20281;-85
2021/12/01 11:31:21;;;;;;;4.78;2.50;;;8.10;99.90;;;;;;5072178;28;20411;-85
2021/12/01 11:33:55;;;;;;;2.22;1.65;;;8.10;99.90;;;;;;5072623;28;20284;-85
2021/12/01 11:36:26;;;;;;;1.02;1.02;;;8.10;99.90;;;;;;5072504;28;20225;-85
2021/12/01 11:38:57;;;;;;;1.20;1.10;;;8.20;99.90;;;;;;5071191;28;20307;-85
2021/12/01 11:41:27;;;;;;;1.55;1.15;;;8.30;99.90;;;;;;5071854;28;20201;-84
2021/12/01 11:44:01;;;;;;;1.30;1.20;;;8.30;99.90;;;;;;5072060;28;20208;-85
2021/12/01 11:46:32;;;;;;;0.75;0.75;;;8.30;99.90;;;;;;5072206;28;20223;-85
2021/12/01 11:49:12;;;;;;;1.08;0.98;;;8.30;99.90;;;;;;5071677;28;20208;-85
2021/12/01 11:51:47;;;;;;;0.80;0.80;;;8.30;99.90;;;;;;5072427;28;20211;-85
2021/12/01 11:54:24;;;;;;;1.00;0.85;;;8.30;99.90;;;;;;5072189;28;20219;-85
2021/12/01 11:57:00;;;;;;;0.93;0.93;;;8.30;99.90;;;;;;5071808;28;20226;-85
2021/12/01 11:59:36;;;;;;;1.38;1.10;;;8.20;99.90;;;;;;5071804;28;20253;-85
2021/12/01 12:02:22;;;;;;;1.00;1.00;;;8.20;99.90;;;;;;5073992;28;20259;-85
2021/12/01 12:04:54;;;;;;;0.80;0.80;;;8.20;99.90;;;;;;5092391;28;20208;-85
2021/12/01 12:07:31;;;;;;;1.00;1.00;;;8.10;99.90;;;;;;5091787;28;20224;-85
2021/12/01 12:10:05;;;;;;;1.13;1.05;;;8.10;99.90;;;;;;5092138;28;20212;-85
2021/12/01 12:12:58;;;;;;;1.42;1.33;;;8.10;99.90;;;;;;5092049;28;20234;-85
2021/12/01 12:15:46;;;;;;;0.80;0.80;;;8.00;99.90;;;;;;5092639;28;20204;-85
2021/12/01 12:18:49;;;;;;;0.80;0.80;;;8.00;99.90;;;;;;5092110;28;20228;-85
2021/12/01 12:21:24;;;;;;;1.30;1.20;;;8.00;99.90;;;;;;5091857;28;20208;-85
2021/12/01 12:24:02;;;;;;;1.45;1.35;;;7.90;99.90;;;;;;5092215;28;20204;-85
2021/12/01 12:26:38;;;;;;;4.13;1.27;;;7.90;99.90;;;;;;5091835;28;20259;-85
2021/12/01 12:29:09;;;;;;;0.93;0.93;;;7.90;99.90;;;;;;5091114;28;20246;-85
2021/12/01 12:31:38;;;;;;;0.73;0.73;;;7.90;99.90;;;;;;5091594;28;20299;-85
2021/12/01 12:34:13;;;;;;;1.73;1.15;;;7.90;99.90;;;;;;5092263;28;20231;-85
2021/12/01 12:36:46;;;;;;;0.80;0.80;;;7.90;99.90;;;;;;5091564;28;20227;-85
2021/12/01 12:39:18;;;;;;;0.95;0.88;;;7.90;99.90;;;;;;5091078;28;20243;-84
2021/12/01 12:42:09;;;;;;;2.00;1.50;;;7.90;99.90;;;;;;5092153;28;20232;-85
2021/12/01 12:44:40;;;;;;;1.08;1.08;;;7.90;99.90;;;;;;5092017;28;20216;-85
2021/12/01 12:47:30;;;;;;;3.97;1.90;;;7.90;99.90;;;;;;5091805;28;20228;-85
2021/12/01 12:50:13;;;;;;;1.83;1.73;;;7.90;99.90;;;;;;5091180;28;20212;-84
2021/12/01 12:52:45;;;;;;;2.10;1.73;;;7.90;99.90;;;;;;5094044;28;20208;-85
2021/12/01 12:55:39;;;;;;;1.98;1.88;;;7.90;99.90;;;;;;5095693;28;20306;-85
2021/12/01 12:58:09;;;;;;;2.35;1.83;;;8.00;99.90;;;;;;5095643;28;20228;-85
2021/12/01 13:00:40;;;;;;;2.10;2.00;;;8.20;99.90;;;;;;5094296;28;20242;-85
2021/12/01 13:03:32;;;;;;;2.58;2.28;;;8.60;99.90;;;;;;5084915;28;20284;-85
2021/12/01 13:06:02;;;;;;;2.40;2.13;;;9.10;99.90;;;;;;5075031;28;20220;-86
2021/12/01 13:08:35;;;;;;;1.92;1.80;;;9.60;99.90;;;;;;5077330;28;20217;-86
2021/12/01 13:11:06;;;;;;;2.30;2.10;;;9.90;99.90;;;;;;5084432;28;20257;-87
2021/12/01 13:13:36;;;;;;;1.83;1.70;;;10.10;99.90;;;;;;5096027;28;20288;-87
2021/12/01 13:16:07;;;;;;;1.55;1.45;;;10.20;99.90;;;;;;5095330;28;20221;-84
2021/12/01 13:18:38;;;;;;;1.92;1.83;;;10.10;99.90;;;;;;5095599;28;20311;-84
2021/12/01 13:21:09;;;;;;;2.00;1.90;;;10.00;99.90;;;;;;5095750;28;20223;-85
2021/12/01 13:23:41;;;;;;;2.60;2.22;;;9.90;99.90;;;;;;5086469;28;20197;-85
2021/12/01 13:26:13;;;;;;;2.33;2.13;;;9.80;99.90;;;;;;5075274;28;20262;-85
2021/12/01 13:28:45;;;;;;;2.53;1.90;;;9.60;99.90;;;;;;5075420;28;20272;-85